sensor_id;sensor_type;location;lat;lon;timestamp;temperature;humidity
21115;DHT22;10715;48.546;9.896;2022-07-11T00:02:04;8.40;99.90
21115;DHT22;10715;48.546;9.896;2022-07-11T00:04:32;8.50;99.90
21115;DHT22;10715;48.546;9.896;2022-07-11T00:06:59;8.50;99.90
21115;DHT22;10715;48.546;9.896;2022-07-11T00:09:26;8.60;99.90
21115;DHT22;10715;48.546;9.896;2022-07-11T00:11:51;8.60;99.90
21115;DHT22;10715;48.546;9.896;2022-07-11T00:14:18;8.60;99.90
21115;DHT22;10715;48.546;9.896;2022-07-11T00:16:44;8.70;99.90
21115;DHT22;10715;48.546;9.896;2022-07-11T00:19:10;8.70;99.90
21115;DHT22;10715;48.546;9.896;2022-07-11T00:21:36;8.70;99.90
21115;DHT22;10715;48.546;9.896;2022-07-11T00:24:03;8.80;99.90
21115;DHT22;10715;48.546;9.896;2022-07-11T00:26:29;8.70;99.90
21115;DHT22;10715;48.546;9.896;2022-07-11T00:28:56;8.70;99.90
21115;DHT22;10715;48.546;9.896;2022-07-11T00:31:22;8.80;99.90
21115;DHT22;10715;48.546;9.896;2022-07-11T00:33:48;8.80;99.90
21115;DHT22;10715;48.546;9.896;2022-07-11T00:36:14;8.80;99.90
21115;DHT22;10715;48.546;9.896;2022-07-11T00:38:40;8.80;99.90
21115;DHT22;10715;48.546;9.896;2022-07-11T00:41:06;8.70;99.90
21115;DHT22;10715;48.546;9.896;2022-07-11T00:43:37;8.80;99.90
21115;DHT22;10715;48.546;9.896;2022-07-11T00:46:04;8.80;99.90
21115;DHT22;10715;48.546;9.896;2022-07-11T00:48:30;8.90;99.90
21115;DHT22;10715;48.546;9.896;2022-07-11T00:50:57;8.90;99.90
21115;DHT22;10715;48.546;9.896;2022-07-11T00:53:24;8.90;99.90
21115;DHT22;10715;48.546;9.896;2022-07-11T00:55:51;9.00;99.90
21115;DHT22;10715;48.546;9.896;2022-07-11T00:58:18;9.00;99.90
21115;DHT22;10715;48.546;9.896;2022-07-11T01:00:44;9.00;99.90
21115;DHT22;10715;48.546;9.896;2022-07-11T01:03:11;9.10;99.90
21115;DHT22;10715;48.546;9.896;2022-07-11T01:05:37;9.10;99.90
21115;DHT22;10715;48.546;9.896;2022-07-11T01:08:03;9.20;99.90
21115;DHT22;10715;48.546;9.896;2022-07-11T01:10:28;9.20;99.90
21115;DHT22;10715;48.546;9.896;2022-07-11T01:12:54;9.20;99.90
21115;DHT22;10715;48.546;9.896;2022-07-11T01:15:20;9.20;99.90
21115;DHT22;10715;48.546;9.896;2022-07-11T01:17:46;9.30;99.90
21115;DHT22;10715;48.546;9.896;2022-07-11T01:20:12;9.30;99.90
21115;DHT22;10715;48.546;9.896;2022-07-11T01:22:44;9.40;99.90
21115;DHT22;10715;48.546;9.896;2022-07-11T01:25:15;9.40;99.90
21115;DHT22;10715;48.546;9.896;2022-07-11T01:27:59;9.40;99.90
21115;DHT22;10715;48.546;9.896;2022-07-11T01:30:27;9.50;99.90
21115;DHT22;10715;48.546;9.896;2022-07-11T01:32:54;9.50;99.90
21115;DHT22;10715;48.546;9.896;2022-07-11T01:35:21;9.50;99.90
21115;DHT22;10715;48.546;9.896;2022-07-11T01:37:47;9.60;99.90
21115;DHT22;10715;48.546;9.896;2022-07-11T01:40:13;9.60;99.90
21115;DHT22;10715;48.546;9.896;2022-07-11T01:42:40;9.60;99.90
21115;DHT22;10715;48.546;9.896;2022-07-11T01:45:06;9.70;99.90
21115;DHT22;10715;48.546;9.896;2022-07-11T01:47:32;9.70;99.90
21115;DHT22;10715;48.546;9.896;2022-07-11T01:49:57;9.70;99.90
21115;DHT22;10715;48.546;9.896;2022-07-11T01:52:23;9.80;99.90
21115;DHT22;10715;48.546;9.896;2022-07-11T01:54:49;9.80;99.90
21115;DHT22;10715;48.546;9.896;2022-07-11T01:57:15;9.80;99.90
21115;DHT22;10715;48.546;9.896;2022-07-11T01:59:41;9.80;99.90
21115;DHT22;10715;48.546;9.896;2022-07-11T02:02:07;9.80;99.90
21115;DHT22;10715;48.546;9.896;2022-07-11T02:04:33;9.90;99.90
21115;DHT22;10715;48.546;9.896;2022-07-11T02:06:59;9.90;99.90
21115;DHT22;10715;48.546;9.896;2022-07-11T02:09:25;9.90;99.90
21115;DHT22;10715;48.546;9.896;2022-07-11T02:11:51;9.90;99.90
21115;DHT22;10715;48.546;9.896;2022-07-11T02:14:17;9.90;99.90
21115;DHT22;10715;48.546;9.896;2022-07-11T02:16:43;9.90;99.90
21115;DHT22;10715;48.546;9.896;2022-07-11T02:19:08;10.00;99.90
21115;DHT22;10715;48.546;9.896;2022-07-11T02:21:36;10.00;99.90
21115;DHT22;10715;48.546;9.896;2022-07-11T02:24:03;10.00;99.90
21115;DHT22;10715;48.546;9.896;2022-07-11T02:26:29;10.00;99.90
21115;DHT22;10715;48.546;9.896;2022-07-11T02:28:54;10.10;99.90
21115;DHT22;10715;48.546;9.896;2022-07-11T02:31:20;10.10;99.90
21115;DHT22;10715;48.546;9.896;2022-07-11T02:33:46;10.10;99.90
21115;DHT22;10715;48.546;9.896;2022-07-11T02:36:12;10.10;99.90
21115;DHT22;10715;48.546;9.896;2022-07-11T02:38:38;10.10;99.90
21115;DHT22;10715;48.546;9.896;2022-07-11T02:41:04;10.10;99.90
21115;DHT22;10715;48.546;9.896;2022-07-11T02:43:30;10.10;99.90
21115;DHT22;10715;48.546;9.896;2022-07-11T02:45:55;10.10;99.90
21115;DHT22;10715;48.546;9.896;2022-07-11T02:48:22;10.10;99.90
21115;DHT22;10715;48.546;9.896;2022-07-11T02:50:48;10.10;99.90
21115;DHT22;10715;48.546;9.896;2022-07-11T02:53:14;10.10;99.90
21115;DHT22;10715;48.546;9.896;2022-07-11T02:55:40;10.20;99.90
21115;DHT22;10715;48.546;9.896;2022-07-11T02:58:06;10.20;99.90
21115;DHT22;10715;48.546;9.896;2022-07-11T03:00:32;10.20;99.90
21115;DHT22;10715;48.546;9.896;2022-07-11T03:02:58;10.20;99.90
21115;DHT22;10715;48.546;9.896;2022-07-11T03:05:24;10.20;99.90
21115;DHT22;10715;48.546;9.896;2022-07-11T03:07:50;10.20;99.90
21115;DHT22;10715;48.546;9.896;2022-07-11T03:10:16;10.20;99.90
21115;DHT22;10715;48.546;9.896;2022-07-11T03:12:42;10.20;99.90
21115;DHT22;10715;48.546;9.896;2022-07-11T03:15:09;10.30;99.90
21115;DHT22;10715;48.546;9.896;2022-07-11T03:17:35;10.30;99.90
21115;DHT22;10715;48.546;9.896;2022-07-11T03:20:02;10.30;99.90
21115;DHT22;10715;48.546;9.896;2022-07-11T03:22:28;10.30;99.90
21115;DHT22;10715;48.546;9.896;2022-07-11T03:24:54;10.30;99.90
21115;DHT22;10715;48.546;9.896;2022-07-11T03:27:20;10.30;99.90
21115;DHT22;10715;48.546;9.896;2022-07-11T03:29:46;10.30;99.90
21115;DHT22;10715;48.546;9.896;2022-07-11T03:32:12;10.40;99.90
21115;DHT22;10715;48.546;9.896;2022-07-11T03:34:38;10.40;99.90
21115;DHT22;10715;48.546;9.896;2022-07-11T03:37:04;10.40;99.90
21115;DHT22;10715;48.546;9.896;2022-07-11T03:39:30;10.40;99.90
21115;DHT22;10715;48.546;9.896;2022-07-11T03:41:56;10.40;99.90
21115;DHT22;10715;48.546;9.896;2022-07-11T03:44:22;10.50;99.90
21115;DHT22;10715;48.546;9.896;2022-07-11T03:46:47;10.50;99.90
21115;DHT22;10715;48.546;9.896;2022-07-11T03:49:13;10.50;99.90
21115;DHT22;10715;48.546;9.896;2022-07-11T03:51:39;10.50;99.90
21115;DHT22;10715;48.546;9.896;2022-07-11T03:54:05;10.60;99.90
21115;DHT22;10715;48.546;9.896;2022-07-11T03:56:31;10.60;99.90
21115;DHT22;10715;48.546;9.896;2022-07-11T03:58:57;10.60;99.90
21115;DHT22;10715;48.546;9.896;2022-07-11T04:01:23;10.70;99.90
21115;DHT22;10715;48.546;9.896;2022-07-11T04:03:48;10.70;99.90
21115;DHT22;10715;48.546;9.896;2022-07-11T04:06:14;10.70;99.90
21115;DHT22;10715;48.546;9.896;2022-07-11T04:08:40;10.80;99.90
21115;DHT22;10715;48.546;9.896;2022-07-11T04:11:07;10.90;99.90
21115;DHT22;10715;48.546;9.896;2022-07-11T04:13:34;10.90;99.90
21115;DHT22;10715;48.546;9.896;2022-07-11T04:15:59;11.00;99.90
21115;DHT22;10715;48.546;9.896;2022-07-11T04:18:25;11.10;99.90
21115;DHT22;10715;48.546;9.896;2022-07-11T04:20:51;11.20;99.90
21115;DHT22;10715;48.546;9.896;2022-07-11T04:23:17;11.20;99.90
21115;DHT22;10715;48.546;9.896;2022-07-11T04:25:43;11.30;99.90
21115;DHT22;10715;48.546;9.896;2022-07-11T04:28:09;11.40;99.90
21115;DHT22;10715;48.546;9.896;2022-07-11T04:30:35;11.50;99.90
21115;DHT22;10715;48.546;9.896;2022-07-11T04:33:01;11.60;99.90
21115;DHT22;10715;48.546;9.896;2022-07-11T04:35:27;11.70;99.90
21115;DHT22;10715;48.546;9.896;2022-07-11T04:37:54;11.80;99.90
21115;DHT22;10715;48.546;9.896;2022-07-11T04:40:20;11.90;99.90
21115;DHT22;10715;48.546;9.896;2022-07-11T04:42:49;12.00;99.90
21115;DHT22;10715;48.546;9.896;2022-07-11T04:45:15;12.10;99.90
21115;DHT22;10715;48.546;9.896;2022-07-11T04:47:41;12.20;99.90
21115;DHT22;10715;48.546;9.896;2022-07-11T04:50:08;12.30;99.90
21115;DHT22;10715;48.546;9.896;2022-07-11T04:52:34;12.40;99.90
21115;DHT22;10715;48.546;9.896;2022-07-11T04:54:59;12.50;99.90
21115;DHT22;10715;48.546;9.896;2022-07-11T04:57:26;12.50;99.90
21115;DHT22;10715;48.546;9.896;2022-07-11T04:59:52;12.60;99.90
21115;DHT22;10715;48.546;9.896;2022-07-11T05:02:19;12.60;99.90
21115;DHT22;10715;48.546;9.896;2022-07-11T05:04:45;12.70;99.90
21115;DHT22;10715;48.546;9.896;2022-07-11T05:07:11;12.80;99.90
21115;DHT22;10715;48.546;9.896;2022-07-11T05:09:39;12.90;99.90
21115;DHT22;10715;48.546;9.896;2022-07-11T05:12:05;12.90;99.90
21115;DHT22;10715;48.546;9.896;2022-07-11T05:14:32;13.00;99.90
21115;DHT22;10715;48.546;9.896;2022-07-11T05:16:58;13.10;99.90
21115;DHT22;10715;48.546;9.896;2022-07-11T05:19:24;13.20;99.90
21115;DHT22;10715;48.546;9.896;2022-07-11T05:21:51;13.30;99.90
21115;DHT22;10715;48.546;9.896;2022-07-11T05:24:16;13.30;99.90
21115;DHT22;10715;48.546;9.896;2022-07-11T05:26:44;13.40;99.90
21115;DHT22;10715;48.546;9.896;2022-07-11T05:29:10;13.50;99.90
21115;DHT22;10715;48.546;9.896;2022-07-11T05:31:36;13.60;99.90
21115;DHT22;10715;48.546;9.896;2022-07-11T05:34:02;13.70;99.90
21115;DHT22;10715;48.546;9.896;2022-07-11T05:36:28;13.80;99.90
21115;DHT22;10715;48.546;9.896;2022-07-11T05:38:53;13.90;99.90
21115;DHT22;10715;48.546;9.896;2022-07-11T05:41:19;14.00;99.90
21115;DHT22;10715;48.546;9.896;2022-07-11T05:43:45;14.10;99.90
21115;DHT22;10715;48.546;9.896;2022-07-11T05:46:10;14.30;99.90
21115;DHT22;10715;48.546;9.896;2022-07-11T05:48:36;14.40;99.90
21115;DHT22;10715;48.546;9.896;2022-07-11T05:51:02;14.60;99.90
21115;DHT22;10715;48.546;9.896;2022-07-11T05:53:28;14.70;99.90
21115;DHT22;10715;48.546;9.896;2022-07-11T05:55:53;14.80;99.90
21115;DHT22;10715;48.546;9.896;2022-07-11T05:58:19;14.90;99.90
21115;DHT22;10715;48.546;9.896;2022-07-11T06:00:45;15.00;99.90
21115;DHT22;10715;48.546;9.896;2022-07-11T06:03:10;15.10;99.90
21115;DHT22;10715;48.546;9.896;2022-07-11T06:05:36;15.20;99.90
21115;DHT22;10715;48.546;9.896;2022-07-11T06:08:02;15.20;99.90
21115;DHT22;10715;48.546;9.896;2022-07-11T06:10:46;15.30;99.90
21115;DHT22;10715;48.546;9.896;2022-07-11T06:13:12;15.30;99.90
21115;DHT22;10715;48.546;9.896;2022-07-11T06:15:37;15.40;99.90
21115;DHT22;10715;48.546;9.896;2022-07-11T06:18:03;15.50;99.90
21115;DHT22;10715;48.546;9.896;2022-07-11T06:20:29;15.60;99.90
21115;DHT22;10715;48.546;9.896;2022-07-11T06:22:55;15.60;99.90
21115;DHT22;10715;48.546;9.896;2022-07-11T06:25:23;15.70;99.90
21115;DHT22;10715;48.546;9.896;2022-07-11T06:27:49;15.90;99.90
21115;DHT22;10715;48.546;9.896;2022-07-11T06:30:15;16.00;99.90
21115;DHT22;10715;48.546;9.896;2022-07-11T06:32:41;16.20;99.90
21115;DHT22;10715;48.546;9.896;2022-07-11T06:35:07;16.30;99.90
21115;DHT22;10715;48.546;9.896;2022-07-11T06:37:33;16.40;99.90
21115;DHT22;10715;48.546;9.896;2022-07-11T06:39:59;16.60;99.90
21115;DHT22;10715;48.546;9.896;2022-07-11T06:42:25;16.70;99.90
21115;DHT22;10715;48.546;9.896;2022-07-11T06:44:50;16.80;99.90
21115;DHT22;10715;48.546;9.896;2022-07-11T06:47:17;16.90;99.90
21115;DHT22;10715;48.546;9.896;2022-07-11T06:49:42;17.00;99.90
21115;DHT22;10715;48.546;9.896;2022-07-11T06:52:09;17.10;99.90
21115;DHT22;10715;48.546;9.896;2022-07-11T06:54:35;17.30;99.90
21115;DHT22;10715;48.546;9.896;2022-07-11T06:57:00;17.60;99.90
21115;DHT22;10715;48.546;9.896;2022-07-11T06:59:26;17.90;99.90
21115;DHT22;10715;48.546;9.896;2022-07-11T07:01:52;18.30;99.90
21115;DHT22;10715;48.546;9.896;2022-07-11T07:04:17;18.70;99.90
21115;DHT22;10715;48.546;9.896;2022-07-11T07:06:43;18.90;99.90
21115;DHT22;10715;48.546;9.896;2022-07-11T07:09:09;19.00;99.90
21115;DHT22;10715;48.546;9.896;2022-07-11T07:11:35;19.20;99.90
21115;DHT22;10715;48.546;9.896;2022-07-11T07:14:01;19.20;99.90
21115;DHT22;10715;48.546;9.896;2022-07-11T07:16:27;19.30;99.90
21115;DHT22;10715;48.546;9.896;2022-07-11T07:18:53;19.60;99.90
21115;DHT22;10715;48.546;9.896;2022-07-11T07:21:19;19.80;99.90
21115;DHT22;10715;48.546;9.896;2022-07-11T07:23:46;20.00;99.90
21115;DHT22;10715;48.546;9.896;2022-07-11T07:26:12;20.30;99.90
21115;DHT22;10715;48.546;9.896;2022-07-11T07:28:38;20.40;99.90
21115;DHT22;10715;48.546;9.896;2022-07-11T07:31:05;20.60;99.90
21115;DHT22;10715;48.546;9.896;2022-07-11T07:33:31;20.70;99.90
21115;DHT22;10715;48.546;9.896;2022-07-11T07:35:57;20.90;99.90
21115;DHT22;10715;48.546;9.896;2022-07-11T07:38:23;20.90;99.90
21115;DHT22;10715;48.546;9.896;2022-07-11T07:40:49;21.00;99.90
21115;DHT22;10715;48.546;9.896;2022-07-11T07:43:14;20.90;99.90
21115;DHT22;10715;48.546;9.896;2022-07-11T07:45:40;21.00;99.90
21115;DHT22;10715;48.546;9.896;2022-07-11T07:48:06;21.20;99.90
21115;DHT22;10715;48.546;9.896;2022-07-11T07:50:31;21.20;99.90
21115;DHT22;10715;48.546;9.896;2022-07-11T07:52:58;21.40;99.90
21115;DHT22;10715;48.546;9.896;2022-07-11T07:55:23;21.50;99.90
21115;DHT22;10715;48.546;9.896;2022-07-11T07:57:49;21.70;99.90
21115;DHT22;10715;48.546;9.896;2022-07-11T08:00:15;22.10;99.90
21115;DHT22;10715;48.546;9.896;2022-07-11T08:03:06;22.30;99.90
21115;DHT22;10715;48.546;9.896;2022-07-11T08:05:33;22.50;99.90
21115;DHT22;10715;48.546;9.896;2022-07-11T08:07:59;22.80;99.90
21115;DHT22;10715;48.546;9.896;2022-07-11T08:10:25;23.10;99.90
21115;DHT22;10715;48.546;9.896;2022-07-11T08:12:51;23.50;99.90
21115;DHT22;10715;48.546;9.896;2022-07-11T08:15:16;23.80;99.90
21115;DHT22;10715;48.546;9.896;2022-07-11T08:17:42;24.20;99.90
21115;DHT22;10715;48.546;9.896;2022-07-11T08:20:11;24.50;99.10
21115;DHT22;10715;48.546;9.896;2022-07-11T08:22:37;24.90;98.40
21115;DHT22;10715;48.546;9.896;2022-07-11T08:25:02;25.40;95.10
21115;DHT22;10715;48.546;9.896;2022-07-11T08:27:28;25.60;95.20
21115;DHT22;10715;48.546;9.896;2022-07-11T08:29:54;26.30;94.90
21115;DHT22;10715;48.546;9.896;2022-07-11T08:32:19;27.00;92.90
21115;DHT22;10715;48.546;9.896;2022-07-11T08:34:45;27.80;87.60
21115;DHT22;10715;48.546;9.896;2022-07-11T08:37:11;28.70;80.40
21115;DHT22;10715;48.546;9.896;2022-07-11T08:39:37;29.50;74.60
21115;DHT22;10715;48.546;9.896;2022-07-11T08:42:03;30.40;71.60
21115;DHT22;10715;48.546;9.896;2022-07-11T08:44:29;31.20;67.20
21115;DHT22;10715;48.546;9.896;2022-07-11T08:46:56;31.70;61.20
21115;DHT22;10715;48.546;9.896;2022-07-11T08:49:23;31.70;60.20
21115;DHT22;10715;48.546;9.896;2022-07-11T08:51:48;31.90;58.00
21115;DHT22;10715;48.546;9.896;2022-07-11T08:54:14;32.40;55.90
21115;DHT22;10715;48.546;9.896;2022-07-11T08:56:43;31.90;53.30
21115;DHT22;10715;48.546;9.896;2022-07-11T08:59:09;30.90;54.80
21115;DHT22;10715;48.546;9.896;2022-07-11T09:01:37;29.60;55.20
21115;DHT22;10715;48.546;9.896;2022-07-11T09:04:07;28.20;58.00
21115;DHT22;10715;48.546;9.896;2022-07-11T09:06:35;27.20;63.50
21115;DHT22;10715;48.546;9.896;2022-07-11T09:09:02;26.40;63.20
21115;DHT22;10715;48.546;9.896;2022-07-11T09:11:28;25.50;66.30
21115;DHT22;10715;48.546;9.896;2022-07-11T09:13:54;24.90;67.70
21115;DHT22;10715;48.546;9.896;2022-07-11T09:16:20;24.70;72.20
21115;DHT22;10715;48.546;9.896;2022-07-11T09:18:46;24.90;70.00
21115;DHT22;10715;48.546;9.896;2022-07-11T09:21:13;25.60;69.40
21115;DHT22;10715;48.546;9.896;2022-07-11T09:24:00;25.70;69.10
21115;DHT22;10715;48.546;9.896;2022-07-11T09:26:49;25.60;69.20
21115;DHT22;10715;48.546;9.896;2022-07-11T09:29:16;25.40;70.40
21115;DHT22;10715;48.546;9.896;2022-07-11T09:31:43;25.20;70.00
21115;DHT22;10715;48.546;9.896;2022-07-11T09:34:28;25.00;72.10
21115;DHT22;10715;48.546;9.896;2022-07-11T09:36:55;24.90;68.60
21115;DHT22;10715;48.546;9.896;2022-07-11T09:39:23;24.50;71.30
21115;DHT22;10715;48.546;9.896;2022-07-11T09:41:50;24.80;76.10
21115;DHT22;10715;48.546;9.896;2022-07-11T09:44:25;26.00;76.00
21115;DHT22;10715;48.546;9.896;2022-07-11T09:46:53;28.30;69.70
21115;DHT22;10715;48.546;9.896;2022-07-11T09:49:38;29.90;61.30
21115;DHT22;10715;48.546;9.896;2022-07-11T09:52:09;29.80;60.40
21115;DHT22;10715;48.546;9.896;2022-07-11T09:54:58;28.90;61.00
21115;DHT22;10715;48.546;9.896;2022-07-11T09:57:36;27.80;62.90
21115;DHT22;10715;48.546;9.896;2022-07-11T10:00:05;26.20;65.30
21115;DHT22;10715;48.546;9.896;2022-07-11T10:02:32;25.40;69.20
21115;DHT22;10715;48.546;9.896;2022-07-11T10:04:59;24.80;69.60
21115;DHT22;10715;48.546;9.896;2022-07-11T10:07:26;24.30;69.90
21115;DHT22;10715;48.546;9.896;2022-07-11T10:09:52;24.00;73.70
21115;DHT22;10715;48.546;9.896;2022-07-11T10:12:20;24.00;73.20
21115;DHT22;10715;48.546;9.896;2022-07-11T10:14:47;24.30;72.10
21115;DHT22;10715;48.546;9.896;2022-07-11T10:20:06;25.00;72.00
21115;DHT22;10715;48.546;9.896;2022-07-11T10:22:37;25.30;72.10
21115;DHT22;10715;48.546;9.896;2022-07-11T10:25:16;25.80;70.30
21115;DHT22;10715;48.546;9.896;2022-07-11T10:33:15;25.40;71.50
21115;DHT22;10715;48.546;9.896;2022-07-11T10:35:46;25.40;71.30
21115;DHT22;10715;48.546;9.896;2022-07-11T10:38:14;25.70;71.20
21115;DHT22;10715;48.546;9.896;2022-07-11T10:43:14;26.60;67.60
21115;DHT22;10715;48.546;9.896;2022-07-11T10:48:21;25.90;68.60
21115;DHT22;10715;48.546;9.896;2022-07-11T10:53:50;24.90;71.60
21115;DHT22;10715;48.546;9.896;2022-07-11T10:59:15;24.30;75.30
21115;DHT22;10715;48.546;9.896;2022-07-11T11:02:04;24.20;72.80
21115;DHT22;10715;48.546;9.896;2022-07-11T11:04:53;24.20;73.10
21115;DHT22;10715;48.546;9.896;2022-07-11T11:07:30;24.50;73.50
21115;DHT22;10715;48.546;9.896;2022-07-11T11:09:57;24.80;73.40
21115;DHT22;10715;48.546;9.896;2022-07-11T11:15:54;24.30;71.60
21115;DHT22;10715;48.546;9.896;2022-07-11T11:23:32;25.20;74.50
21115;DHT22;10715;48.546;9.896;2022-07-11T11:26:12;25.90;72.10
21115;DHT22;10715;48.546;9.896;2022-07-11T11:29:00;26.10;71.40
21115;DHT22;10715;48.546;9.896;2022-07-11T11:31:28;25.80;72.70
21115;DHT22;10715;48.546;9.896;2022-07-11T11:33:56;25.40;71.20
21115;DHT22;10715;48.546;9.896;2022-07-11T11:36:23;25.00;74.80
21115;DHT22;10715;48.546;9.896;2022-07-11T11:38:50;25.00;74.90
21115;DHT22;10715;48.546;9.896;2022-07-11T11:41:30;25.00;73.40
21115;DHT22;10715;48.546;9.896;2022-07-11T11:44:01;24.90;72.40
21115;DHT22;10715;48.546;9.896;2022-07-11T11:46:28;24.90;73.80
21115;DHT22;10715;48.546;9.896;2022-07-11T11:48:56;25.30;74.70
21115;DHT22;10715;48.546;9.896;2022-07-11T11:51:26;25.80;73.40
21115;DHT22;10715;48.546;9.896;2022-07-11T11:53:57;26.00;71.00
21115;DHT22;10715;48.546;9.896;2022-07-11T11:56:29;26.00;72.10
21115;DHT22;10715;48.546;9.896;2022-07-11T11:58:57;25.90;72.20
21115;DHT22;10715;48.546;9.896;2022-07-11T12:01:32;25.50;72.50
21115;DHT22;10715;48.546;9.896;2022-07-11T12:04:04;25.10;74.10
21115;DHT22;10715;48.546;9.896;2022-07-11T12:06:42;24.90;75.20
21115;DHT22;10715;48.546;9.896;2022-07-11T12:09:16;24.50;74.20
21115;DHT22;10715;48.546;9.896;2022-07-11T12:11:45;24.50;75.20
21115;DHT22;10715;48.546;9.896;2022-07-11T12:14:13;24.80;75.70
21115;DHT22;10715;48.546;9.896;2022-07-11T12:16:44;25.00;75.20
21115;DHT22;10715;48.546;9.896;2022-07-11T12:19:17;24.80;74.00
21115;DHT22;10715;48.546;9.896;2022-07-11T12:21:46;24.30;76.20
21115;DHT22;10715;48.546;9.896;2022-07-11T12:24:23;24.10;77.50
21115;DHT22;10715;48.546;9.896;2022-07-11T12:26:49;24.30;79.00
21115;DHT22;10715;48.546;9.896;2022-07-11T12:29:17;24.60;76.30
21115;DHT22;10715;48.546;9.896;2022-07-11T12:32:00;24.60;75.20
21115;DHT22;10715;48.546;9.896;2022-07-11T12:37:17;24.90;74.50
21115;DHT22;10715;48.546;9.896;2022-07-11T12:39:48;25.00;76.00
21115;DHT22;10715;48.546;9.896;2022-07-11T12:42:28;24.90;74.20
21115;DHT22;10715;48.546;9.896;2022-07-11T12:47:34;25.20;73.70
21115;DHT22;10715;48.546;9.896;2022-07-11T12:50:22;25.30;74.20
21115;DHT22;10715;48.546;9.896;2022-07-11T12:52:52;25.50;76.30
21115;DHT22;10715;48.546;9.896;2022-07-11T12:55:28;25.80;73.70
21115;DHT22;10715;48.546;9.896;2022-07-11T12:58:07;26.10;74.10
21115;DHT22;10715;48.546;9.896;2022-07-11T13:00:34;26.20;73.00
21115;DHT22;10715;48.546;9.896;2022-07-11T13:03:05;26.20;72.30
21115;DHT22;10715;48.546;9.896;2022-07-11T13:05:48;26.00;70.70
21115;DHT22;10715;48.546;9.896;2022-07-11T13:08:25;25.60;73.00
21115;DHT22;10715;48.546;9.896;2022-07-11T13:11:12;25.30;72.20
21115;DHT22;10715;48.546;9.896;2022-07-11T13:13:38;25.00;73.40
21115;DHT22;10715;48.546;9.896;2022-07-11T13:16:05;24.80;75.50
21115;DHT22;10715;48.546;9.896;2022-07-11T13:18:33;24.80;75.30
21115;DHT22;10715;48.546;9.896;2022-07-11T13:20:59;24.80;76.00
21115;DHT22;10715;48.546;9.896;2022-07-11T13:23:25;24.60;74.40
21115;DHT22;10715;48.546;9.896;2022-07-11T13:25:50;24.60;76.70
21115;DHT22;10715;48.546;9.896;2022-07-11T13:28:16;24.60;75.90
21115;DHT22;10715;48.546;9.896;2022-07-11T13:30:42;24.60;77.10
21115;DHT22;10715;48.546;9.896;2022-07-11T13:33:08;24.60;77.20
21115;DHT22;10715;48.546;9.896;2022-07-11T13:35:33;24.60;75.00
21115;DHT22;10715;48.546;9.896;2022-07-11T13:37:59;24.40;74.70
21115;DHT22;10715;48.546;9.896;2022-07-11T13:40:25;24.30;74.60
21115;DHT22;10715;48.546;9.896;2022-07-11T13:42:51;24.00;75.50
21115;DHT22;10715;48.546;9.896;2022-07-11T13:45:20;23.70;76.70
21115;DHT22;10715;48.546;9.896;2022-07-11T13:47:47;23.40;77.60
21115;DHT22;10715;48.546;9.896;2022-07-11T13:50:14;23.20;78.00
21115;DHT22;10715;48.546;9.896;2022-07-11T13:52:40;22.90;78.30
21115;DHT22;10715;48.546;9.896;2022-07-11T13:55:07;22.60;79.60
21115;DHT22;10715;48.546;9.896;2022-07-11T13:57:34;22.20;80.80
21115;DHT22;10715;48.546;9.896;2022-07-11T13:59:59;22.00;81.70
21115;DHT22;10715;48.546;9.896;2022-07-11T14:02:25;22.00;83.30
21115;DHT22;10715;48.546;9.896;2022-07-11T14:04:51;22.10;82.80
21115;DHT22;10715;48.546;9.896;2022-07-11T14:07:17;22.20;82.70
21115;DHT22;10715;48.546;9.896;2022-07-11T14:09:43;22.30;83.20
21115;DHT22;10715;48.546;9.896;2022-07-11T14:12:09;22.30;83.50
21115;DHT22;10715;48.546;9.896;2022-07-11T14:14:35;22.40;84.50
21115;DHT22;10715;48.546;9.896;2022-07-11T14:17:02;22.60;86.00
21115;DHT22;10715;48.546;9.896;2022-07-11T14:19:28;22.70;83.90
21115;DHT22;10715;48.546;9.896;2022-07-11T14:21:54;23.00;84.70
21115;DHT22;10715;48.546;9.896;2022-07-11T14:24:20;23.10;83.00
21115;DHT22;10715;48.546;9.896;2022-07-11T14:26:47;23.10;81.70
21115;DHT22;10715;48.546;9.896;2022-07-11T14:29:15;23.20;82.10
21115;DHT22;10715;48.546;9.896;2022-07-11T14:31:41;23.30;81.80
21115;DHT22;10715;48.546;9.896;2022-07-11T14:34:07;23.40;82.00
21115;DHT22;10715;48.546;9.896;2022-07-11T14:36:33;23.50;81.80
21115;DHT22;10715;48.546;9.896;2022-07-11T14:38:58;23.20;81.50
21115;DHT22;10715;48.546;9.896;2022-07-11T14:41:24;23.20;82.30
21115;DHT22;10715;48.546;9.896;2022-07-11T14:43:50;23.20;82.20
21115;DHT22;10715;48.546;9.896;2022-07-11T14:46:16;23.10;81.00
21115;DHT22;10715;48.546;9.896;2022-07-11T14:48:42;23.10;81.70
21115;DHT22;10715;48.546;9.896;2022-07-11T14:51:08;22.90;83.80
21115;DHT22;10715;48.546;9.896;2022-07-11T14:53:34;22.90;83.80
21115;DHT22;10715;48.546;9.896;2022-07-11T14:56:02;22.80;86.50
21115;DHT22;10715;48.546;9.896;2022-07-11T14:58:27;22.80;85.80
21115;DHT22;10715;48.546;9.896;2022-07-11T15:00:53;22.70;83.70
21115;DHT22;10715;48.546;9.896;2022-07-11T15:03:19;22.60;83.40
21115;DHT22;10715;48.546;9.896;2022-07-11T15:06:10;22.50;84.40
21115;DHT22;10715;48.546;9.896;2022-07-11T15:08:37;22.30;85.30
21115;DHT22;10715;48.546;9.896;2022-07-11T15:11:21;22.30;86.00
21115;DHT22;10715;48.546;9.896;2022-07-11T15:14:08;22.40;85.30
21115;DHT22;10715;48.546;9.896;2022-07-11T15:16:35;22.40;84.50
21115;DHT22;10715;48.546;9.896;2022-07-11T15:19:05;22.30;84.30
21115;DHT22;10715;48.546;9.896;2022-07-11T15:21:31;22.20;85.20
21115;DHT22;10715;48.546;9.896;2022-07-11T15:23:58;22.20;84.80
21115;DHT22;10715;48.546;9.896;2022-07-11T15:26:24;22.10;86.10
21115;DHT22;10715;48.546;9.896;2022-07-11T15:28:50;22.10;85.90
21115;DHT22;10715;48.546;9.896;2022-07-11T15:31:17;22.20;87.10
21115;DHT22;10715;48.546;9.896;2022-07-11T15:33:43;22.10;86.70
21115;DHT22;10715;48.546;9.896;2022-07-11T15:36:10;22.10;86.70
21115;DHT22;10715;48.546;9.896;2022-07-11T15:38:35;22.20;86.70
21115;DHT22;10715;48.546;9.896;2022-07-11T15:41:03;22.10;86.60
21115;DHT22;10715;48.546;9.896;2022-07-11T15:43:32;22.20;86.00
21115;DHT22;10715;48.546;9.896;2022-07-11T15:45:59;22.10;85.30
21115;DHT22;10715;48.546;9.896;2022-07-11T15:48:27;22.10;85.40
21115;DHT22;10715;48.546;9.896;2022-07-11T15:50:53;21.90;86.20
21115;DHT22;10715;48.546;9.896;2022-07-11T15:53:19;21.80;85.20
21115;DHT22;10715;48.546;9.896;2022-07-11T15:55:45;21.60;86.70
21115;DHT22;10715;48.546;9.896;2022-07-11T15:58:12;21.60;88.00
21115;DHT22;10715;48.546;9.896;2022-07-11T16:00:38;21.60;87.50
21115;DHT22;10715;48.546;9.896;2022-07-11T16:03:05;21.70;87.50
21115;DHT22;10715;48.546;9.896;2022-07-11T16:05:30;21.80;87.80
21115;DHT22;10715;48.546;9.896;2022-07-11T16:07:56;21.80;88.20
21115;DHT22;10715;48.546;9.896;2022-07-11T16:10:23;21.80;87.80